sensor_id;sensor_type;location;lat;lon;timestamp;P1;durP1;ratioP1;P2;durP2;ratioP2
42294;SDS011;27947;47.556;18.718;2024-03-07T00:01:27;25.42;;;14.40;;
42294;SDS011;27947;47.556;18.718;2024-03-07T00:03:53;23.17;;;14.45;;
42294;SDS011;27947;47.556;18.718;2024-03-07T00:06:18;24.50;;;14.13;;
42294;SDS011;27947;47.556;18.718;2024-03-07T00:08:43;25.42;;;14.32;;
42294;SDS011;27947;47.556;18.718;2024-03-07T00:11:08;23.13;;;14.02;;
42294;SDS011;27947;47.556;18.718;2024-03-07T00:13:34;23.65;;;14.65;;
42294;SDS011;27947;47.556;18.718;2024-03-07T00:15:59;28.23;;;15.75;;
42294;SDS011;27947;47.556;18.718;2024-03-07T00:18:26;29.00;;;15.98;;
42294;SDS011;27947;47.556;18.718;2024-03-07T00:20:52;22.48;;;15.25;;
42294;SDS011;27947;47.556;18.718;2024-03-07T00:23:19;24.65;;;15.43;;
42294;SDS011;27947;47.556;18.718;2024-03-07T00:25:45;27.58;;;16.30;;
42294;SDS011;27947;47.556;18.718;2024-03-07T00:28:10;26.40;;;15.82;;
42294;SDS011;27947;47.556;18.718;2024-03-07T00:30:35;27.63;;;15.70;;
42294;SDS011;27947;47.556;18.718;2024-03-07T00:33:00;26.63;;;15.23;;
42294;SDS011;27947;47.556;18.718;2024-03-07T00:35:26;26.58;;;15.05;;
42294;SDS011;27947;47.556;18.718;2024-03-07T00:37:52;24.67;;;14.65;;
42294;SDS011;27947;47.556;18.718;2024-03-07T00:40:18;24.33;;;15.55;;
42294;SDS011;27947;47.556;18.718;2024-03-07T00:42:43;26.50;;;14.38;;
42294;SDS011;27947;47.556;18.718;2024-03-07T00:45:08;23.50;;;14.90;;
42294;SDS011;27947;47.556;18.718;2024-03-07T00:47:34;25.25;;;15.68;;
42294;SDS011;27947;47.556;18.718;2024-03-07T00:49:59;27.98;;;16.05;;
42294;SDS011;27947;47.556;18.718;2024-03-07T00:52:25;27.80;;;16.25;;
42294;SDS011;27947;47.556;18.718;2024-03-07T00:54:50;28.02;;;16.58;;
42294;SDS011;27947;47.556;18.718;2024-03-07T00:57:16;26.15;;;15.43;;
42294;SDS011;27947;47.556;18.718;2024-03-07T00:59:41;26.80;;;16.45;;
42294;SDS011;27947;47.556;18.718;2024-03-07T01:02:07;26.73;;;15.23;;
42294;SDS011;27947;47.556;18.718;2024-03-07T01:04:32;26.42;;;15.65;;
42294;SDS011;27947;47.556;18.718;2024-03-07T01:06:58;29.38;;;16.80;;
42294;SDS011;27947;47.556;18.718;2024-03-07T01:09:24;29.23;;;16.58;;
42294;SDS011;27947;47.556;18.718;2024-03-07T01:11:49;26.58;;;15.98;;
42294;SDS011;27947;47.556;18.718;2024-03-07T01:14:14;28.75;;;16.60;;
42294;SDS011;27947;47.556;18.718;2024-03-07T01:16:40;30.23;;;16.98;;
42294;SDS011;27947;47.556;18.718;2024-03-07T01:19:05;30.02;;;17.30;;
42294;SDS011;27947;47.556;18.718;2024-03-07T01:21:31;27.08;;;16.50;;
42294;SDS011;27947;47.556;18.718;2024-03-07T01:23:57;31.02;;;17.38;;
42294;SDS011;27947;47.556;18.718;2024-03-07T01:26:22;27.90;;;15.93;;
42294;SDS011;27947;47.556;18.718;2024-03-07T01:28:49;30.33;;;16.85;;
42294;SDS011;27947;47.556;18.718;2024-03-07T01:31:14;28.38;;;16.85;;
42294;SDS011;27947;47.556;18.718;2024-03-07T01:33:39;25.83;;;15.02;;
42294;SDS011;27947;47.556;18.718;2024-03-07T01:36:04;24.63;;;14.93;;
42294;SDS011;27947;47.556;18.718;2024-03-07T01:38:30;23.70;;;14.60;;
42294;SDS011;27947;47.556;18.718;2024-03-07T01:40:55;25.83;;;15.57;;
42294;SDS011;27947;47.556;18.718;2024-03-07T01:43:20;23.27;;;13.85;;
42294;SDS011;27947;47.556;18.718;2024-03-07T01:45:46;25.35;;;15.48;;
42294;SDS011;27947;47.556;18.718;2024-03-07T01:48:12;27.65;;;15.20;;
42294;SDS011;27947;47.556;18.718;2024-03-07T01:50:39;26.23;;;16.35;;
42294;SDS011;27947;47.556;18.718;2024-03-07T01:53:05;27.02;;;16.73;;
42294;SDS011;27947;47.556;18.718;2024-03-07T01:55:31;23.67;;;14.32;;
42294;SDS011;27947;47.556;18.718;2024-03-07T01:57:58;21.23;;;12.98;;
42294;SDS011;27947;47.556;18.718;2024-03-07T02:00:24;21.25;;;12.50;;
42294;SDS011;27947;47.556;18.718;2024-03-07T02:02:49;22.02;;;13.10;;
42294;SDS011;27947;47.556;18.718;2024-03-07T02:05:15;22.08;;;13.27;;
42294;SDS011;27947;47.556;18.718;2024-03-07T02:07:40;23.75;;;13.65;;
42294;SDS011;27947;47.556;18.718;2024-03-07T02:10:06;21.73;;;13.68;;
42294;SDS011;27947;47.556;18.718;2024-03-07T02:12:31;21.77;;;13.02;;
42294;SDS011;27947;47.556;18.718;2024-03-07T02:14:57;23.52;;;13.68;;
42294;SDS011;27947;47.556;18.718;2024-03-07T02:17:23;23.92;;;14.10;;
42294;SDS011;27947;47.556;18.718;2024-03-07T02:19:48;24.88;;;14.70;;
42294;SDS011;27947;47.556;18.718;2024-03-07T02:22:14;23.23;;;14.15;;
42294;SDS011;27947;47.556;18.718;2024-03-07T02:24:39;24.63;;;14.77;;
42294;SDS011;27947;47.556;18.718;2024-03-07T02:27:04;27.02;;;15.32;;
42294;SDS011;27947;47.556;18.718;2024-03-07T02:29:29;26.27;;;15.48;;
42294;SDS011;27947;47.556;18.718;2024-03-07T02:31:55;22.13;;;13.48;;
42294;SDS011;27947;47.556;18.718;2024-03-07T02:34:21;22.90;;;14.55;;
42294;SDS011;27947;47.556;18.718;2024-03-07T02:36:47;27.10;;;15.18;;
42294;SDS011;27947;47.556;18.718;2024-03-07T02:39:12;26.15;;;14.95;;
42294;SDS011;27947;47.556;18.718;2024-03-07T02:41:38;27.02;;;14.98;;
42294;SDS011;27947;47.556;18.718;2024-03-07T02:44:03;26.63;;;15.50;;
42294;SDS011;27947;47.556;18.718;2024-03-07T02:46:29;25.83;;;15.63;;
42294;SDS011;27947;47.556;18.718;2024-03-07T02:48:54;24.35;;;15.43;;
42294;SDS011;27947;47.556;18.718;2024-03-07T02:51:19;25.88;;;16.17;;
42294;SDS011;27947;47.556;18.718;2024-03-07T02:53:45;28.23;;;16.35;;
42294;SDS011;27947;47.556;18.718;2024-03-07T02:56:10;25.70;;;15.50;;
42294;SDS011;27947;47.556;18.718;2024-03-07T02:58:36;30.17;;;17.10;;
42294;SDS011;27947;47.556;18.718;2024-03-07T03:01:01;31.80;;;17.88;;
42294;SDS011;27947;47.556;18.718;2024-03-07T03:03:30;34.60;;;17.95;;
42294;SDS011;27947;47.556;18.718;2024-03-07T03:05:59;29.73;;;16.98;;
42294;SDS011;27947;47.556;18.718;2024-03-07T03:08:24;27.05;;;16.08;;
42294;SDS011;27947;47.556;18.718;2024-03-07T03:10:50;24.88;;;15.45;;
42294;SDS011;27947;47.556;18.718;2024-03-07T03:13:18;26.75;;;15.27;;
42294;SDS011;27947;47.556;18.718;2024-03-07T03:15:43;29.65;;;15.93;;
42294;SDS011;27947;47.556;18.718;2024-03-07T03:18:08;26.67;;;15.95;;
42294;SDS011;27947;47.556;18.718;2024-03-07T03:20:34;26.90;;;15.73;;
42294;SDS011;27947;47.556;18.718;2024-03-07T03:23:03;23.92;;;14.82;;
42294;SDS011;27947;47.556;18.718;2024-03-07T03:25:29;24.58;;;14.27;;
42294;SDS011;27947;47.556;18.718;2024-03-07T03:27:55;24.17;;;14.10;;
42294;SDS011;27947;47.556;18.718;2024-03-07T03:30:20;26.20;;;13.65;;
42294;SDS011;27947;47.556;18.718;2024-03-07T03:32:49;23.77;;;13.82;;
42294;SDS011;27947;47.556;18.718;2024-03-07T03:35:14;25.95;;;14.68;;
42294;SDS011;27947;47.556;18.718;2024-03-07T03:37:41;23.30;;;14.93;;
42294;SDS011;27947;47.556;18.718;2024-03-07T03:40:07;27.90;;;15.68;;
42294;SDS011;27947;47.556;18.718;2024-03-07T03:42:34;31.10;;;18.00;;
42294;SDS011;27947;47.556;18.718;2024-03-07T03:44:59;29.38;;;15.90;;
42294;SDS011;27947;47.556;18.718;2024-03-07T03:47:25;30.27;;;17.33;;
42294;SDS011;27947;47.556;18.718;2024-03-07T03:49:50;28.50;;;16.17;;
42294;SDS011;27947;47.556;18.718;2024-03-07T03:52:15;29.13;;;16.65;;
42294;SDS011;27947;47.556;18.718;2024-03-07T03:54:41;27.73;;;17.23;;
42294;SDS011;27947;47.556;18.718;2024-03-07T03:57:06;27.23;;;16.65;;
42294;SDS011;27947;47.556;18.718;2024-03-07T03:59:32;26.40;;;15.77;;
42294;SDS011;27947;47.556;18.718;2024-03-07T04:01:57;25.65;;;15.20;;
42294;SDS011;27947;47.556;18.718;2024-03-07T04:04:25;25.30;;;15.20;;
42294;SDS011;27947;47.556;18.718;2024-03-07T04:06:51;28.70;;;16.92;;
42294;SDS011;27947;47.556;18.718;2024-03-07T04:09:16;26.55;;;15.52;;
42294;SDS011;27947;47.556;18.718;2024-03-07T04:11:44;30.83;;;16.23;;
42294;SDS011;27947;47.556;18.718;2024-03-07T04:14:09;31.30;;;16.98;;
42294;SDS011;27947;47.556;18.718;2024-03-07T04:16:35;30.17;;;17.25;;
42294;SDS011;27947;47.556;18.718;2024-03-07T04:19:00;27.63;;;16.30;;
42294;SDS011;27947;47.556;18.718;2024-03-07T04:21:25;30.52;;;16.75;;
42294;SDS011;27947;47.556;18.718;2024-03-07T04:23:50;27.05;;;16.25;;
42294;SDS011;27947;47.556;18.718;2024-03-07T04:26:16;26.67;;;16.13;;
42294;SDS011;27947;47.556;18.718;2024-03-07T04:28:42;27.08;;;16.90;;
42294;SDS011;27947;47.556;18.718;2024-03-07T04:31:07;27.08;;;16.67;;
42294;SDS011;27947;47.556;18.718;2024-03-07T04:33:33;27.85;;;16.67;;
42294;SDS011;27947;47.556;18.718;2024-03-07T04:35:58;26.27;;;16.30;;
42294;SDS011;27947;47.556;18.718;2024-03-07T04:38:26;27.85;;;16.42;;
42294;SDS011;27947;47.556;18.718;2024-03-07T04:40:53;25.95;;;15.52;;
42294;SDS011;27947;47.556;18.718;2024-03-07T04:43:18;26.50;;;15.80;;
42294;SDS011;27947;47.556;18.718;2024-03-07T04:45:44;27.35;;;16.88;;
42294;SDS011;27947;47.556;18.718;2024-03-07T04:48:10;26.13;;;15.65;;
42294;SDS011;27947;47.556;18.718;2024-03-07T04:50:35;26.00;;;15.85;;
42294;SDS011;27947;47.556;18.718;2024-03-07T04:53:01;27.65;;;15.65;;
42294;SDS011;27947;47.556;18.718;2024-03-07T04:55:27;24.65;;;15.63;;
42294;SDS011;27947;47.556;18.718;2024-03-07T04:57:52;25.05;;;14.43;;
42294;SDS011;27947;47.556;18.718;2024-03-07T05:00:17;22.30;;;13.25;;
42294;SDS011;27947;47.556;18.718;2024-03-07T05:02:47;23.10;;;13.57;;
42294;SDS011;27947;47.556;18.718;2024-03-07T05:05:14;24.23;;;13.57;;
42294;SDS011;27947;47.556;18.718;2024-03-07T05:07:39;23.75;;;13.80;;
42294;SDS011;27947;47.556;18.718;2024-03-07T05:10:05;20.88;;;12.77;;
42294;SDS011;27947;47.556;18.718;2024-03-07T05:12:31;20.23;;;12.30;;
42294;SDS011;27947;47.556;18.718;2024-03-07T05:14:56;18.70;;;11.88;;
42294;SDS011;27947;47.556;18.718;2024-03-07T05:17:22;20.02;;;11.93;;
42294;SDS011;27947;47.556;18.718;2024-03-07T05:19:47;18.95;;;12.00;;
42294;SDS011;27947;47.556;18.718;2024-03-07T05:22:14;17.90;;;10.98;;
42294;SDS011;27947;47.556;18.718;2024-03-07T05:24:41;20.17;;;10.90;;
42294;SDS011;27947;47.556;18.718;2024-03-07T05:27:07;17.77;;;10.65;;
42294;SDS011;27947;47.556;18.718;2024-03-07T05:29:33;17.80;;;10.20;;
42294;SDS011;27947;47.556;18.718;2024-03-07T05:32:18;15.18;;;9.70;;
42294;SDS011;27947;47.556;18.718;2024-03-07T05:34:43;15.88;;;9.70;;
42294;SDS011;27947;47.556;18.718;2024-03-07T05:37:08;14.82;;;10.00;;
42294;SDS011;27947;47.556;18.718;2024-03-07T05:39:34;15.07;;;9.57;;
42294;SDS011;27947;47.556;18.718;2024-03-07T05:42:00;16.88;;;9.75;;
42294;SDS011;27947;47.556;18.718;2024-03-07T05:44:26;15.85;;;10.30;;
42294;SDS011;27947;47.556;18.718;2024-03-07T05:46:51;17.52;;;10.13;;
42294;SDS011;27947;47.556;18.718;2024-03-07T05:49:16;16.35;;;9.73;;
42294;SDS011;27947;47.556;18.718;2024-03-07T05:51:46;15.85;;;9.93;;
42294;SDS011;27947;47.556;18.718;2024-03-07T05:54:12;14.48;;;8.90;;
42294;SDS011;27947;47.556;18.718;2024-03-07T05:56:38;15.73;;;9.05;;
42294;SDS011;27947;47.556;18.718;2024-03-07T05:59:04;19.20;;;10.55;;
42294;SDS011;27947;47.556;18.718;2024-03-07T06:01:31;15.60;;;9.98;;
42294;SDS011;27947;47.556;18.718;2024-03-07T06:03:58;15.40;;;10.00;;
42294;SDS011;27947;47.556;18.718;2024-03-07T06:06:23;14.10;;;9.48;;
42294;SDS011;27947;47.556;18.718;2024-03-07T06:08:49;16.77;;;8.93;;
42294;SDS011;27947;47.556;18.718;2024-03-07T06:11:14;12.77;;;8.75;;
42294;SDS011;27947;47.556;18.718;2024-03-07T06:13:45;12.43;;;8.10;;
42294;SDS011;27947;47.556;18.718;2024-03-07T06:16:11;13.05;;;8.20;;
42294;SDS011;27947;47.556;18.718;2024-03-07T06:18:36;10.50;;;7.30;;
42294;SDS011;27947;47.556;18.718;2024-03-07T06:21:01;13.20;;;7.35;;
42294;SDS011;27947;47.556;18.718;2024-03-07T06:23:29;11.27;;;7.65;;
42294;SDS011;27947;47.556;18.718;2024-03-07T06:25:55;10.07;;;6.93;;
42294;SDS011;27947;47.556;18.718;2024-03-07T06:28:23;13.00;;;7.93;;
42294;SDS011;27947;47.556;18.718;2024-03-07T06:30:48;9.88;;;6.88;;
42294;SDS011;27947;47.556;18.718;2024-03-07T06:33:14;10.70;;;7.32;;
42294;SDS011;27947;47.556;18.718;2024-03-07T06:35:39;11.50;;;7.32;;
42294;SDS011;27947;47.556;18.718;2024-03-07T06:38:06;11.40;;;7.35;;
42294;SDS011;27947;47.556;18.718;2024-03-07T06:40:32;10.10;;;7.22;;
42294;SDS011;27947;47.556;18.718;2024-03-07T06:42:58;11.48;;;6.85;;
42294;SDS011;27947;47.556;18.718;2024-03-07T06:45:23;11.70;;;7.13;;
42294;SDS011;27947;47.556;18.718;2024-03-07T06:47:49;10.65;;;7.07;;
42294;SDS011;27947;47.556;18.718;2024-03-07T06:50:14;11.82;;;7.00;;
42294;SDS011;27947;47.556;18.718;2024-03-07T06:52:42;10.40;;;6.80;;
42294;SDS011;27947;47.556;18.718;2024-03-07T06:55:07;9.60;;;6.57;;
42294;SDS011;27947;47.556;18.718;2024-03-07T06:57:33;10.27;;;7.10;;
42294;SDS011;27947;47.556;18.718;2024-03-07T06:59:59;10.25;;;6.70;;
42294;SDS011;27947;47.556;18.718;2024-03-07T07:02:25;10.63;;;7.18;;
42294;SDS011;27947;47.556;18.718;2024-03-07T07:04:52;10.13;;;6.75;;
42294;SDS011;27947;47.556;18.718;2024-03-07T07:07:18;12.70;;;6.90;;
42294;SDS011;27947;47.556;18.718;2024-03-07T07:09:44;10.00;;;6.43;;
42294;SDS011;27947;47.556;18.718;2024-03-07T07:12:09;10.35;;;6.30;;
42294;SDS011;27947;47.556;18.718;2024-03-07T07:14:34;9.77;;;6.80;;
42294;SDS011;27947;47.556;18.718;2024-03-07T07:17:01;11.55;;;6.88;;
42294;SDS011;27947;47.556;18.718;2024-03-07T07:19:26;10.32;;;6.40;;
42294;SDS011;27947;47.556;18.718;2024-03-07T07:21:52;10.68;;;7.00;;
42294;SDS011;27947;47.556;18.718;2024-03-07T07:24:25;9.85;;;6.78;;
42294;SDS011;27947;47.556;18.718;2024-03-07T07:26:50;10.05;;;6.75;;
42294;SDS011;27947;47.556;18.718;2024-03-07T07:29:16;9.73;;;6.38;;
42294;SDS011;27947;47.556;18.718;2024-03-07T07:31:41;10.45;;;6.78;;
42294;SDS011;27947;47.556;18.718;2024-03-07T07:34:06;10.32;;;6.30;;
42294;SDS011;27947;47.556;18.718;2024-03-07T07:36:31;9.88;;;6.93;;
42294;SDS011;27947;47.556;18.718;2024-03-07T07:38:57;10.95;;;6.57;;
42294;SDS011;27947;47.556;18.718;2024-03-07T07:41:23;9.70;;;5.88;;
42294;SDS011;27947;47.556;18.718;2024-03-07T07:43:48;8.13;;;5.78;;
42294;SDS011;27947;47.556;18.718;2024-03-07T07:46:13;9.05;;;5.95;;
42294;SDS011;27947;47.556;18.718;2024-03-07T07:48:41;9.75;;;6.05;;
42294;SDS011;27947;47.556;18.718;2024-03-07T07:51:06;8.90;;;5.97;;
42294;SDS011;27947;47.556;18.718;2024-03-07T07:53:32;10.35;;;6.70;;
42294;SDS011;27947;47.556;18.718;2024-03-07T07:55:57;9.23;;;6.38;;
42294;SDS011;27947;47.556;18.718;2024-03-07T07:58:22;10.70;;;6.28;;
42294;SDS011;27947;47.556;18.718;2024-03-07T08:00:47;9.60;;;6.13;;
42294;SDS011;27947;47.556;18.718;2024-03-07T08:03:13;9.80;;;6.88;;
42294;SDS011;27947;47.556;18.718;2024-03-07T08:05:40;8.55;;;5.95;;
42294;SDS011;27947;47.556;18.718;2024-03-07T08:08:07;10.70;;;5.97;;
42294;SDS011;27947;47.556;18.718;2024-03-07T08:10:33;9.10;;;6.40;;
42294;SDS011;27947;47.556;18.718;2024-03-07T08:12:59;9.07;;;6.53;;
42294;SDS011;27947;47.556;18.718;2024-03-07T08:15:26;8.82;;;6.07;;
42294;SDS011;27947;47.556;18.718;2024-03-07T08:17:52;8.80;;;6.47;;
42294;SDS011;27947;47.556;18.718;2024-03-07T08:20:20;12.38;;;6.03;;
42294;SDS011;27947;47.556;18.718;2024-03-07T08:22:49;8.45;;;6.13;;
42294;SDS011;27947;47.556;18.718;2024-03-07T08:25:18;9.82;;;6.25;;
42294;SDS011;27947;47.556;18.718;2024-03-07T08:27:45;10.45;;;6.50;;
42294;SDS011;27947;47.556;18.718;2024-03-07T08:30:11;10.55;;;5.97;;
42294;SDS011;27947;47.556;18.718;2024-03-07T08:32:43;8.88;;;5.60;;
42294;SDS011;27947;47.556;18.718;2024-03-07T08:35:09;10.33;;;5.60;;
42294;SDS011;27947;47.556;18.718;2024-03-07T08:37:35;9.18;;;6.53;;
42294;SDS011;27947;47.556;18.718;2024-03-07T08:40:00;9.55;;;6.25;;
42294;SDS011;27947;47.556;18.718;2024-03-07T08:42:29;11.10;;;6.70;;
42294;SDS011;27947;47.556;18.718;2024-03-07T08:44:54;10.60;;;5.68;;
42294;SDS011;27947;47.556;18.718;2024-03-07T08:47:19;8.82;;;6.35;;
42294;SDS011;27947;47.556;18.718;2024-03-07T08:49:45;10.30;;;6.22;;
42294;SDS011;27947;47.556;18.718;2024-03-07T08:52:10;11.52;;;6.20;;
42294;SDS011;27947;47.556;18.718;2024-03-07T08:54:35;7.78;;;5.82;;
42294;SDS011;27947;47.556;18.718;2024-03-07T08:57:00;9.80;;;6.35;;
42294;SDS011;27947;47.556;18.718;2024-03-07T08:59:26;9.32;;;6.07;;
42294;SDS011;27947;47.556;18.718;2024-03-07T09:01:51;8.93;;;5.85;;
42294;SDS011;27947;47.556;18.718;2024-03-07T09:04:17;7.20;;;4.90;;
42294;SDS011;27947;47.556;18.718;2024-03-07T09:06:43;6.40;;;4.72;;
42294;SDS011;27947;47.556;18.718;2024-03-07T09:09:08;6.80;;;4.50;;
42294;SDS011;27947;47.556;18.718;2024-03-07T09:11:34;6.35;;;4.47;;
42294;SDS011;27947;47.556;18.718;2024-03-07T09:14:01;6.05;;;3.85;;
42294;SDS011;27947;47.556;18.718;2024-03-07T09:16:26;10.02;;;3.97;;
42294;SDS011;27947;47.556;18.718;2024-03-07T09:18:52;5.10;;;3.17;;
42294;SDS011;27947;47.556;18.718;2024-03-07T09:21:17;3.47;;;3.08;;
42294;SDS011;27947;47.556;18.718;2024-03-07T09:23:42;6.72;;;3.13;;
42294;SDS011;27947;47.556;18.718;2024-03-07T09:26:07;5.03;;;3.08;;
42294;SDS011;27947;47.556;18.718;2024-03-07T09:28:33;5.65;;;3.55;;
42294;SDS011;27947;47.556;18.718;2024-03-07T09:30:58;4.78;;;3.15;;
42294;SDS011;27947;47.556;18.718;2024-03-07T09:33:23;4.15;;;3.10;;
42294;SDS011;27947;47.556;18.718;2024-03-07T09:35:49;4.25;;;3.10;;
42294;SDS011;27947;47.556;18.718;2024-03-07T09:38:14;5.43;;;3.70;;
42294;SDS011;27947;47.556;18.718;2024-03-07T09:40:40;4.18;;;3.42;;
42294;SDS011;27947;47.556;18.718;2024-03-07T09:43:05;5.13;;;3.53;;
42294;SDS011;27947;47.556;18.718;2024-03-07T09:45:32;4.68;;;3.15;;
42294;SDS011;27947;47.556;18.718;2024-03-07T09:47:59;4.00;;;3.10;;
42294;SDS011;27947;47.556;18.718;2024-03-07T09:50:24;4.68;;;3.45;;
42294;SDS011;27947;47.556;18.718;2024-03-07T09:52:54;5.03;;;3.20;;
42294;SDS011;27947;47.556;18.718;2024-03-07T09:55:20;6.10;;;3.20;;
42294;SDS011;27947;47.556;18.718;2024-03-07T09:57:46;5.30;;;3.78;;
42294;SDS011;27947;47.556;18.718;2024-03-07T10:00:12;5.78;;;3.65;;
42294;SDS011;27947;47.556;18.718;2024-03-07T10:02:47;4.10;;;3.10;;
42294;SDS011;27947;47.556;18.718;2024-03-07T10:05:14;4.80;;;3.50;;
42294;SDS011;27947;47.556;18.718;2024-03-07T10:07:40;5.40;;;3.97;;
42294;SDS011;27947;47.556;18.718;2024-03-07T10:10:05;6.13;;;4.10;;
42294;SDS011;27947;47.556;18.718;2024-03-07T10:12:35;8.27;;;4.20;;
42294;SDS011;27947;47.556;18.718;2024-03-07T10:15:03;4.97;;;3.60;;
42294;SDS011;27947;47.556;18.718;2024-03-07T10:17:30;6.32;;;4.05;;
42294;SDS011;27947;47.556;18.718;2024-03-07T10:19:57;5.80;;;3.78;;
42294;SDS011;27947;47.556;18.718;2024-03-07T10:22:24;3.70;;;3.10;;
42294;SDS011;27947;47.556;18.718;2024-03-07T10:24:53;6.78;;;3.50;;
42294;SDS011;27947;47.556;18.718;2024-03-07T10:27:21;7.32;;;3.47;;
42294;SDS011;27947;47.556;18.718;2024-03-07T10:29:47;4.13;;;3.20;;
42294;SDS011;27947;47.556;18.718;2024-03-07T10:32:18;4.38;;;3.10;;
42294;SDS011;27947;47.556;18.718;2024-03-07T10:34:44;4.43;;;3.30;;
42294;SDS011;27947;47.556;18.718;2024-03-07T10:37:11;4.13;;;2.97;;
42294;SDS011;27947;47.556;18.718;2024-03-07T10:39:41;4.82;;;3.40;;
42294;SDS011;27947;47.556;18.718;2024-03-07T10:42:07;5.38;;;3.40;;
42294;SDS011;27947;47.556;18.718;2024-03-07T10:44:37;4.63;;;3.40;;
42294;SDS011;27947;47.556;18.718;2024-03-07T10:47:06;4.70;;;3.80;;
42294;SDS011;27947;47.556;18.718;2024-03-07T10:49:33;6.97;;;3.63;;
42294;SDS011;27947;47.556;18.718;2024-03-07T10:52:02;6.03;;;3.70;;
42294;SDS011;27947;47.556;18.718;2024-03-07T10:59:39;4.80;;;3.30;;
42294;SDS011;27947;47.556;18.718;2024-03-07T11:02:20;4.25;;;3.47;;
42294;SDS011;27947;47.556;18.718;2024-03-07T11:04:55;4.80;;;3.78;;
42294;SDS011;27947;47.556;18.718;2024-03-07T11:07:21;4.32;;;3.33;;
42294;SDS011;27947;47.556;18.718;2024-03-07T11:09:49;4.63;;;3.17;;
42294;SDS011;27947;47.556;18.718;2024-03-07T11:12:14;4.90;;;3.80;;
42294;SDS011;27947;47.556;18.718;2024-03-07T11:14:40;5.90;;;4.13;;
42294;SDS011;27947;47.556;18.718;2024-03-07T11:17:07;5.72;;;3.80;;
42294;SDS011;27947;47.556;18.718;2024-03-07T11:19:33;5.25;;;3.50;;
42294;SDS011;27947;47.556;18.718;2024-03-07T11:22:02;11.55;;;6.00;;
42294;SDS011;27947;47.556;18.718;2024-03-07T11:24:30;6.05;;;4.35;;
42294;SDS011;27947;47.556;18.718;2024-03-07T11:26:59;8.35;;;5.55;;
42294;SDS011;27947;47.556;18.718;2024-03-07T11:32:14;5.68;;;4.13;;
42294;SDS011;27947;47.556;18.718;2024-03-07T11:34:41;5.70;;;4.25;;
42294;SDS011;27947;47.556;18.718;2024-03-07T11:37:06;5.22;;;3.90;;
42294;SDS011;27947;47.556;18.718;2024-03-07T11:39:39;9.95;;;4.65;;
42294;SDS011;27947;47.556;18.718;2024-03-07T11:42:04;5.38;;;3.83;;
42294;SDS011;27947;47.556;18.718;2024-03-07T11:44:31;5.43;;;3.90;;
42294;SDS011;27947;47.556;18.718;2024-03-07T11:46:59;5.80;;;4.50;;
42294;SDS011;27947;47.556;18.718;2024-03-07T11:49:33;6.38;;;4.07;;
42294;SDS011;27947;47.556;18.718;2024-03-07T11:52:01;5.40;;;3.80;;
42294;SDS011;27947;47.556;18.718;2024-03-07T11:54:29;5.28;;;4.05;;
42294;SDS011;27947;47.556;18.718;2024-03-07T11:56:56;4.97;;;3.90;;
42294;SDS011;27947;47.556;18.718;2024-03-07T11:59:22;5.78;;;4.28;;
42294;SDS011;27947;47.556;18.718;2024-03-07T12:01:48;6.20;;;4.53;;
42294;SDS011;27947;47.556;18.718;2024-03-07T12:04:14;5.82;;;4.20;;
42294;SDS011;27947;47.556;18.718;2024-03-07T12:06:49;7.97;;;5.05;;
42294;SDS011;27947;47.556;18.718;2024-03-07T12:09:15;7.05;;;4.85;;
42294;SDS011;27947;47.556;18.718;2024-03-07T12:11:49;7.70;;;4.93;;
42294;SDS011;27947;47.556;18.718;2024-03-07T12:14:18;5.88;;;4.28;;
42294;SDS011;27947;47.556;18.718;2024-03-07T12:16:43;7.78;;;4.57;;
42294;SDS011;27947;47.556;18.718;2024-03-07T12:19:08;6.07;;;4.28;;
42294;SDS011;27947;47.556;18.718;2024-03-07T12:21:36;10.10;;;4.93;;
42294;SDS011;27947;47.556;18.718;2024-03-07T12:24:10;6.82;;;4.60;;
42294;SDS011;27947;47.556;18.718;2024-03-07T12:26:36;10.20;;;6.90;;
42294;SDS011;27947;47.556;18.718;2024-03-07T12:29:08;7.72;;;5.22;;
42294;SDS011;27947;47.556;18.718;2024-03-07T12:31:37;9.25;;;5.47;;
42294;SDS011;27947;47.556;18.718;2024-03-07T12:34:02;7.13;;;5.20;;
42294;SDS011;27947;47.556;18.718;2024-03-07T12:36:29;7.38;;;4.72;;
42294;SDS011;27947;47.556;18.718;2024-03-07T12:38:59;7.22;;;4.93;;
42294;SDS011;27947;47.556;18.718;2024-03-07T12:41:34;5.95;;;4.45;;
42294;SDS011;27947;47.556;18.718;2024-03-07T12:43:59;6.53;;;4.43;;
42294;SDS011;27947;47.556;18.718;2024-03-07T12:46:25;8.23;;;4.53;;
42294;SDS011;27947;47.556;18.718;2024-03-07T12:48:50;8.25;;;5.78;;
42294;SDS011;27947;47.556;18.718;2024-03-07T12:51:15;6.28;;;5.13;;
42294;SDS011;27947;47.556;18.718;2024-03-07T12:53:43;7.03;;;5.07;;
42294;SDS011;27947;47.556;18.718;2024-03-07T12:56:08;8.13;;;5.60;;
42294;SDS011;27947;47.556;18.718;2024-03-07T12:58:34;7.88;;;5.35;;
42294;SDS011;27947;47.556;18.718;2024-03-07T13:00:59;6.90;;;5.22;;
42294;SDS011;27947;47.556;18.718;2024-03-07T13:03:25;6.55;;;4.80;;
42294;SDS011;27947;47.556;18.718;2024-03-07T13:05:57;7.60;;;4.85;;
42294;SDS011;27947;47.556;18.718;2024-03-07T13:08:26;6.47;;;4.75;;
42294;SDS011;27947;47.556;18.718;2024-03-07T13:10:53;8.05;;;5.30;;
42294;SDS011;27947;47.556;18.718;2024-03-07T13:13:20;8.40;;;5.30;;
42294;SDS011;27947;47.556;18.718;2024-03-07T13:15:45;7.03;;;5.07;;
42294;SDS011;27947;47.556;18.718;2024-03-07T13:18:12;8.63;;;5.95;;
42294;SDS011;27947;47.556;18.718;2024-03-07T13:20:38;8.43;;;4.97;;
42294;SDS011;27947;47.556;18.718;2024-03-07T13:23:03;7.07;;;4.85;;
42294;SDS011;27947;47.556;18.718;2024-03-07T13:25:29;7.97;;;5.63;;
42294;SDS011;27947;47.556;18.718;2024-03-07T13:28:02;7.57;;;5.40;;
42294;SDS011;27947;47.556;18.718;2024-03-07T13:30:29;7.28;;;5.00;;
42294;SDS011;27947;47.556;18.718;2024-03-07T13:32:55;8.32;;;5.07;;
42294;SDS011;27947;47.556;18.718;2024-03-07T13:35:20;8.00;;;5.53;;
42294;SDS011;27947;47.556;18.718;2024-03-07T13:37:49;8.73;;;6.03;;
42294;SDS011;27947;47.556;18.718;2024-03-07T13:40:15;9.68;;;6.00;;
42294;SDS011;27947;47.556;18.718;2024-03-07T13:42:58;9.75;;;6.15;;
42294;SDS011;27947;47.556;18.718;2024-03-07T13:45:28;10.35;;;6.07;;
42294;SDS011;27947;47.556;18.718;2024-03-07T13:47:54;8.30;;;5.88;;
42294;SDS011;27947;47.556;18.718;2024-03-07T13:50:20;7.78;;;5.80;;
42294;SDS011;27947;47.556;18.718;2024-03-07T13:52:47;9.82;;;6.53;;
42294;SDS011;27947;47.556;18.718;2024-03-07T13:55:32;9.02;;;5.40;;
42294;SDS011;27947;47.556;18.718;2024-03-07T13:58:00;9.52;;;5.75;;
42294;SDS011;27947;47.556;18.718;2024-03-07T14:08:28;11.45;;;6.93;;
42294;SDS011;27947;47.556;18.718;2024-03-07T14:13:45;10.98;;;6.75;;
42294;SDS011;27947;47.556;18.718;2024-03-07T14:29:27;11.63;;;7.97;;
42294;SDS011;27947;47.556;18.718;2024-03-07T14:31:55;13.48;;;8.68;;
42294;SDS011;27947;47.556;18.718;2024-03-07T14:37:09;11.25;;;7.28;;
42294;SDS011;27947;47.556;18.718;2024-03-07T14:39:36;15.02;;;8.88;;
42294;SDS011;27947;47.556;18.718;2024-03-07T14:42:05;12.57;;;8.60;;
42294;SDS011;27947;47.556;18.718;2024-03-07T14:44:36;13.20;;;8.20;;
42294;SDS011;27947;47.556;18.718;2024-03-07T14:47:03;11.60;;;7.40;;
42294;SDS011;27947;47.556;18.718;2024-03-07T14:49:32;15.55;;;9.30;;
42294;SDS011;27947;47.556;18.718;2024-03-07T14:51:58;15.93;;;9.90;;